sensor_id;sensor_type;location;lat;lon;timestamp;P1;durP1;ratioP1;P2;durP2;ratioP2
10365;SDS011;5229;41.820;23.490;2022-07-17T00:00:20;4.17;;;3.87;;
10365;SDS011;5229;41.820;23.490;2022-07-17T00:02:47;4.40;;;4.10;;
10365;SDS011;5229;41.820;23.490;2022-07-17T00:05:14;4.53;;;4.17;;
10365;SDS011;5229;41.820;23.490;2022-07-17T00:07:41;4.27;;;3.97;;
10365;SDS011;5229;41.820;23.490;2022-07-17T00:10:12;4.30;;;3.97;;
10365;SDS011;5229;41.820;23.490;2022-07-17T00:12:39;4.80;;;4.40;;
10365;SDS011;5229;41.820;23.490;2022-07-17T00:15:06;4.20;;;3.90;;
10365;SDS011;5229;41.820;23.490;2022-07-17T00:17:35;6.27;;;4.30;;
10365;SDS011;5229;41.820;23.490;2022-07-17T00:20:03;4.17;;;3.87;;
10365;SDS011;5229;41.820;23.490;2022-07-17T00:22:34;4.37;;;3.97;;
10365;SDS011;5229;41.820;23.490;2022-07-17T00:25:00;4.03;;;3.73;;
10365;SDS011;5229;41.820;23.490;2022-07-17T00:27:29;4.27;;;3.87;;
10365;SDS011;5229;41.820;23.490;2022-07-17T00:29:55;3.80;;;3.50;;
10365;SDS011;5229;41.820;23.490;2022-07-17T00:32:25;4.07;;;3.67;;
10365;SDS011;5229;41.820;23.490;2022-07-17T00:34:52;4.23;;;3.90;;
10365;SDS011;5229;41.820;23.490;2022-07-17T00:37:19;3.87;;;3.57;;
10365;SDS011;5229;41.820;23.490;2022-07-17T00:39:46;5.33;;;4.03;;
10365;SDS011;5229;41.820;23.490;2022-07-17T00:42:13;4.40;;;4.10;;
10365;SDS011;5229;41.820;23.490;2022-07-17T00:44:43;4.40;;;4.00;;
10365;SDS011;5229;41.820;23.490;2022-07-17T00:47:12;3.90;;;3.50;;
10365;SDS011;5229;41.820;23.490;2022-07-17T00:49:42;3.93;;;3.60;;
10365;SDS011;5229;41.820;23.490;2022-07-17T00:52:13;4.90;;;4.40;;
10365;SDS011;5229;41.820;23.490;2022-07-17T00:54:41;5.00;;;4.60;;
10365;SDS011;5229;41.820;23.490;2022-07-17T00:57:10;4.80;;;4.40;;
10365;SDS011;5229;41.820;23.490;2022-07-17T00:59:39;5.33;;;4.93;;
10365;SDS011;5229;41.820;23.490;2022-07-17T01:02:08;9.03;;;4.70;;
10365;SDS011;5229;41.820;23.490;2022-07-17T01:04:40;5.07;;;4.57;;
10365;SDS011;5229;41.820;23.490;2022-07-17T01:07:07;4.63;;;4.30;;
10365;SDS011;5229;41.820;23.490;2022-07-17T01:09:34;5.07;;;4.67;;
10365;SDS011;5229;41.820;23.490;2022-07-17T01:12:01;4.20;;;3.80;;
10365;SDS011;5229;41.820;23.490;2022-07-17T01:14:28;5.27;;;4.60;;
10365;SDS011;5229;41.820;23.490;2022-07-17T01:16:57;4.20;;;3.80;;
10365;SDS011;5229;41.820;23.490;2022-07-17T01:19:28;4.73;;;3.83;;
10365;SDS011;5229;41.820;23.490;2022-07-17T01:21:58;4.10;;;3.80;;
10365;SDS011;5229;41.820;23.490;2022-07-17T01:24:25;4.00;;;3.60;;
10365;SDS011;5229;41.820;23.490;2022-07-17T01:26:51;4.10;;;3.80;;
10365;SDS011;5229;41.820;23.490;2022-07-17T01:29:18;4.60;;;4.30;;
10365;SDS011;5229;41.820;23.490;2022-07-17T01:31:45;4.00;;;3.70;;
10365;SDS011;5229;41.820;23.490;2022-07-17T01:34:12;4.60;;;4.20;;
10365;SDS011;5229;41.820;23.490;2022-07-17T01:36:39;3.97;;;3.67;;
10365;SDS011;5229;41.820;23.490;2022-07-17T01:39:08;4.10;;;3.80;;
10365;SDS011;5229;41.820;23.490;2022-07-17T01:41:35;4.10;;;3.80;;
10365;SDS011;5229;41.820;23.490;2022-07-17T01:44:02;4.83;;;4.37;;
10365;SDS011;5229;41.820;23.490;2022-07-17T01:46:29;5.00;;;4.50;;
10365;SDS011;5229;41.820;23.490;2022-07-17T01:48:56;4.00;;;3.67;;
10365;SDS011;5229;41.820;23.490;2022-07-17T01:51:25;4.13;;;3.73;;
10365;SDS011;5229;41.820;23.490;2022-07-17T01:53:52;3.33;;;3.13;;
10365;SDS011;5229;41.820;23.490;2022-07-17T01:56:21;4.37;;;3.97;;
10365;SDS011;5229;41.820;23.490;2022-07-17T01:58:47;4.30;;;3.43;;
10365;SDS011;5229;41.820;23.490;2022-07-17T02:01:14;4.10;;;3.80;;
10365;SDS011;5229;41.820;23.490;2022-07-17T02:03:42;3.90;;;3.50;;
10365;SDS011;5229;41.820;23.490;2022-07-17T02:06:09;4.70;;;4.30;;
10365;SDS011;5229;41.820;23.490;2022-07-17T02:08:36;4.40;;;4.10;;
10365;SDS011;5229;41.820;23.490;2022-07-17T02:11:03;3.83;;;3.53;;
10365;SDS011;5229;41.820;23.490;2022-07-17T02:13:31;4.50;;;4.10;;
10365;SDS011;5229;41.820;23.490;2022-07-17T02:15:58;3.30;;;3.10;;
10365;SDS011;5229;41.820;23.490;2022-07-17T02:18:24;3.70;;;3.30;;
10365;SDS011;5229;41.820;23.490;2022-07-17T02:20:51;3.53;;;3.23;;
10365;SDS011;5229;41.820;23.490;2022-07-17T02:23:18;3.87;;;3.10;;
10365;SDS011;5229;41.820;23.490;2022-07-17T02:25:45;3.00;;;2.80;;
10365;SDS011;5229;41.820;23.490;2022-07-17T02:28:11;3.67;;;3.10;;
10365;SDS011;5229;41.820;23.490;2022-07-17T02:30:40;3.30;;;3.00;;
10365;SDS011;5229;41.820;23.490;2022-07-17T02:33:07;3.13;;;2.70;;
10365;SDS011;5229;41.820;23.490;2022-07-17T02:35:33;3.23;;;2.93;;
10365;SDS011;5229;41.820;23.490;2022-07-17T02:38:00;3.40;;;3.10;;
10365;SDS011;5229;41.820;23.490;2022-07-17T02:40:27;3.63;;;3.33;;
10365;SDS011;5229;41.820;23.490;2022-07-17T02:42:57;4.13;;;3.73;;
10365;SDS011;5229;41.820;23.490;2022-07-17T02:45:24;3.40;;;3.20;;
10365;SDS011;5229;41.820;23.490;2022-07-17T02:47:52;4.00;;;3.70;;
10365;SDS011;5229;41.820;23.490;2022-07-17T02:50:20;3.97;;;3.67;;
10365;SDS011;5229;41.820;23.490;2022-07-17T02:52:47;3.67;;;3.40;;
10365;SDS011;5229;41.820;23.490;2022-07-17T02:55:15;4.40;;;3.80;;
10365;SDS011;5229;41.820;23.490;2022-07-17T02:57:42;3.33;;;3.10;;
10365;SDS011;5229;41.820;23.490;2022-07-17T03:00:12;3.90;;;3.60;;
10365;SDS011;5229;41.820;23.490;2022-07-17T03:02:41;6.23;;;3.10;;
10365;SDS011;5229;41.820;23.490;2022-07-17T03:05:10;4.30;;;3.30;;
10365;SDS011;5229;41.820;23.490;2022-07-17T03:07:38;3.43;;;3.13;;
10365;SDS011;5229;41.820;23.490;2022-07-17T03:10:05;3.83;;;3.10;;
10365;SDS011;5229;41.820;23.490;2022-07-17T03:12:33;2.83;;;2.63;;
10365;SDS011;5229;41.820;23.490;2022-07-17T03:15:00;3.03;;;2.83;;
10365;SDS011;5229;41.820;23.490;2022-07-17T03:17:27;3.13;;;2.90;;
10365;SDS011;5229;41.820;23.490;2022-07-17T03:19:54;3.17;;;2.97;;
10365;SDS011;5229;41.820;23.490;2022-07-17T03:22:22;4.27;;;3.37;;
10365;SDS011;5229;41.820;23.490;2022-07-17T03:24:49;3.27;;;2.97;;
10365;SDS011;5229;41.820;23.490;2022-07-17T03:27:15;3.13;;;2.93;;
10365;SDS011;5229;41.820;23.490;2022-07-17T03:29:43;4.43;;;3.00;;
10365;SDS011;5229;41.820;23.490;2022-07-17T03:32:10;3.07;;;2.67;;
10365;SDS011;5229;41.820;23.490;2022-07-17T03:34:37;3.60;;;3.30;;
10365;SDS011;5229;41.820;23.490;2022-07-17T03:37:04;3.37;;;3.07;;
10365;SDS011;5229;41.820;23.490;2022-07-17T03:39:32;3.60;;;3.30;;
10365;SDS011;5229;41.820;23.490;2022-07-17T03:41:59;3.57;;;3.27;;
10365;SDS011;5229;41.820;23.490;2022-07-17T03:44:26;3.43;;;3.13;;
10365;SDS011;5229;41.820;23.490;2022-07-17T03:46:53;3.30;;;3.00;;
10365;SDS011;5229;41.820;23.490;2022-07-17T03:49:20;3.30;;;2.90;;
10365;SDS011;5229;41.820;23.490;2022-07-17T03:51:47;3.20;;;2.97;;
10365;SDS011;5229;41.820;23.490;2022-07-17T03:54:14;3.40;;;3.10;;
10365;SDS011;5229;41.820;23.490;2022-07-17T03:56:42;3.40;;;3.17;;
10365;SDS011;5229;41.820;23.490;2022-07-17T03:59:09;3.50;;;3.20;;
10365;SDS011;5229;41.820;23.490;2022-07-17T04:01:36;3.50;;;3.20;;
10365;SDS011;5229;41.820;23.490;2022-07-17T04:04:03;3.13;;;2.83;;
10365;SDS011;5229;41.820;23.490;2022-07-17T04:06:30;3.33;;;3.03;;
10365;SDS011;5229;41.820;23.490;2022-07-17T04:08:57;3.40;;;3.10;;
10365;SDS011;5229;41.820;23.490;2022-07-17T04:11:23;3.90;;;3.60;;
10365;SDS011;5229;41.820;23.490;2022-07-17T04:13:52;3.90;;;3.50;;
10365;SDS011;5229;41.820;23.490;2022-07-17T04:16:18;3.23;;;3.03;;
10365;SDS011;5229;41.820;23.490;2022-07-17T04:18:45;3.17;;;2.97;;
10365;SDS011;5229;41.820;23.490;2022-07-17T04:21:12;6.30;;;5.70;;
10365;SDS011;5229;41.820;23.490;2022-07-17T04:23:39;5.87;;;5.37;;
10365;SDS011;5229;41.820;23.490;2022-07-17T04:26:09;5.87;;;5.47;;
10365;SDS011;5229;41.820;23.490;2022-07-17T04:28:43;6.53;;;6.03;;
10365;SDS011;5229;41.820;23.490;2022-07-17T04:31:17;5.67;;;5.13;;
10365;SDS011;5229;41.820;23.490;2022-07-17T04:33:45;5.60;;;5.10;;
10365;SDS011;5229;41.820;23.490;2022-07-17T04:36:14;4.70;;;4.30;;
10365;SDS011;5229;41.820;23.490;2022-07-17T04:38:42;6.63;;;5.30;;
10365;SDS011;5229;41.820;23.490;2022-07-17T04:41:11;6.67;;;5.87;;
10365;SDS011;5229;41.820;23.490;2022-07-17T04:43:37;7.40;;;6.70;;
10365;SDS011;5229;41.820;23.490;2022-07-17T04:46:10;7.50;;;6.80;;
10365;SDS011;5229;41.820;23.490;2022-07-17T04:48:43;7.37;;;6.70;;
10365;SDS011;5229;41.820;23.490;2022-07-17T04:51:12;6.97;;;6.33;;
10365;SDS011;5229;41.820;23.490;2022-07-17T04:53:42;6.30;;;5.80;;
10365;SDS011;5229;41.820;23.490;2022-07-17T04:56:08;7.10;;;6.40;;
10365;SDS011;5229;41.820;23.490;2022-07-17T04:58:35;7.00;;;6.40;;
10365;SDS011;5229;41.820;23.490;2022-07-17T05:01:02;7.00;;;6.40;;
10365;SDS011;5229;41.820;23.490;2022-07-17T05:03:32;9.27;;;6.80;;
10365;SDS011;5229;41.820;23.490;2022-07-17T05:05:58;7.05;;;6.45;;
10365;SDS011;5229;41.820;23.490;2022-07-17T05:08:25;7.53;;;6.77;;
10365;SDS011;5229;41.820;23.490;2022-07-17T05:10:52;6.63;;;6.05;;
10365;SDS011;5229;41.820;23.490;2022-07-17T05:13:19;6.03;;;5.53;;
10365;SDS011;5229;41.820;23.490;2022-07-17T05:15:46;5.50;;;5.03;;
10365;SDS011;5229;41.820;23.490;2022-07-17T05:18:14;5.95;;;5.35;;
10365;SDS011;5229;41.820;23.490;2022-07-17T05:20:42;4.40;;;4.07;;
10365;SDS011;5229;41.820;23.490;2022-07-17T05:23:09;4.97;;;4.50;;
10365;SDS011;5229;41.820;23.490;2022-07-17T05:25:36;4.18;;;3.88;;
10365;SDS011;5229;41.820;23.490;2022-07-17T05:28:03;4.32;;;3.92;;
10365;SDS011;5229;41.820;23.490;2022-07-17T05:30:30;3.35;;;3.13;;
10365;SDS011;5229;41.820;23.490;2022-07-17T05:32:57;4.32;;;3.70;;
10365;SDS011;5229;41.820;23.490;2022-07-17T05:35:24;4.90;;;3.50;;
10365;SDS011;5229;41.820;23.490;2022-07-17T05:37:52;3.72;;;3.42;;
10365;SDS011;5229;41.820;23.490;2022-07-17T05:40:19;4.10;;;3.40;;
10365;SDS011;5229;41.820;23.490;2022-07-17T05:42:46;5.55;;;5.15;;
10365;SDS011;5229;41.820;23.490;2022-07-17T05:45:13;6.20;;;5.70;;
10365;SDS011;5229;41.820;23.490;2022-07-17T05:47:39;5.88;;;5.38;;
10365;SDS011;5229;41.820;23.490;2022-07-17T05:50:06;7.03;;;6.43;;
10365;SDS011;5229;41.820;23.490;2022-07-17T05:52:33;6.65;;;6.05;;
10365;SDS011;5229;41.820;23.490;2022-07-17T05:55:02;5.97;;;5.38;;
10365;SDS011;5229;41.820;23.490;2022-07-17T05:57:29;5.72;;;5.22;;
10365;SDS011;5229;41.820;23.490;2022-07-17T05:59:55;5.57;;;5.07;;
10365;SDS011;5229;41.820;23.490;2022-07-17T06:02:22;5.50;;;4.97;;
10365;SDS011;5229;41.820;23.490;2022-07-17T06:04:49;4.95;;;4.55;;
10365;SDS011;5229;41.820;23.490;2022-07-17T06:07:16;4.70;;;4.30;;
10365;SDS011;5229;41.820;23.490;2022-07-17T06:09:43;5.07;;;4.68;;
10365;SDS011;5229;41.820;23.490;2022-07-17T06:12:11;4.90;;;4.50;;
10365;SDS011;5229;41.820;23.490;2022-07-17T06:14:37;4.65;;;4.25;;
10365;SDS011;5229;41.820;23.490;2022-07-17T06:17:04;8.52;;;5.07;;
10365;SDS011;5229;41.820;23.490;2022-07-17T06:19:31;6.15;;;5.55;;
10365;SDS011;5229;41.820;23.490;2022-07-17T06:21:58;6.40;;;5.90;;
10365;SDS011;5229;41.820;23.490;2022-07-17T06:24:25;6.68;;;6.03;;
10365;SDS011;5229;41.820;23.490;2022-07-17T06:26:51;6.15;;;5.60;;
10365;SDS011;5229;41.820;23.490;2022-07-17T06:29:20;6.18;;;5.70;;
10365;SDS011;5229;41.820;23.490;2022-07-17T06:31:46;6.03;;;5.53;;
10365;SDS011;5229;41.820;23.490;2022-07-17T06:34:13;6.68;;;6.13;;
10365;SDS011;5229;41.820;23.490;2022-07-17T06:36:40;6.15;;;5.47;;
10365;SDS011;5229;41.820;23.490;2022-07-17T06:39:07;6.10;;;5.28;;
10365;SDS011;5229;41.820;23.490;2022-07-17T06:41:34;5.88;;;5.38;;
10365;SDS011;5229;41.820;23.490;2022-07-17T06:44:00;5.65;;;5.15;;
10365;SDS011;5229;41.820;23.490;2022-07-17T06:46:29;6.32;;;4.68;;
10365;SDS011;5229;41.820;23.490;2022-07-17T06:48:55;5.40;;;4.90;;
10365;SDS011;5229;41.820;23.490;2022-07-17T06:51:22;4.97;;;4.57;;
10365;SDS011;5229;41.820;23.490;2022-07-17T06:53:49;4.68;;;4.28;;
10365;SDS011;5229;41.820;23.490;2022-07-17T06:56:16;4.35;;;4.05;;
10365;SDS011;5229;41.820;23.490;2022-07-17T06:58:42;4.95;;;4.47;;
10365;SDS011;5229;41.820;23.490;2022-07-17T07:01:09;6.47;;;4.35;;
10365;SDS011;5229;41.820;23.490;2022-07-17T07:03:38;4.30;;;4.00;;
10365;SDS011;5229;41.820;23.490;2022-07-17T07:06:05;4.40;;;4.10;;
10365;SDS011;5229;41.820;23.490;2022-07-17T07:08:32;4.47;;;4.07;;
10365;SDS011;5229;41.820;23.490;2022-07-17T07:11:00;4.07;;;3.78;;
10365;SDS011;5229;41.820;23.490;2022-07-17T07:13:27;3.08;;;2.88;;
10365;SDS011;5229;41.820;23.490;2022-07-17T07:15:54;4.07;;;3.55;;
10365;SDS011;5229;41.820;23.490;2022-07-17T07:18:21;4.53;;;3.53;;
10365;SDS011;5229;41.820;23.490;2022-07-17T07:20:50;12.48;;;3.78;;
10365;SDS011;5229;41.820;23.490;2022-07-17T07:23:17;3.92;;;3.28;;
10365;SDS011;5229;41.820;23.490;2022-07-17T07:25:44;3.75;;;3.22;;
10365;SDS011;5229;41.820;23.490;2022-07-17T07:28:11;5.32;;;2.85;;
10365;SDS011;5229;41.820;23.490;2022-07-17T07:30:38;4.00;;;3.60;;
10365;SDS011;5229;41.820;23.490;2022-07-17T07:33:05;2.90;;;2.70;;
10365;SDS011;5229;41.820;23.490;2022-07-17T07:35:32;3.15;;;2.95;;
10365;SDS011;5229;41.820;23.490;2022-07-17T07:38:00;3.92;;;3.60;;
10365;SDS011;5229;41.820;23.490;2022-07-17T07:40:28;3.92;;;2.90;;
10365;SDS011;5229;41.820;23.490;2022-07-17T07:42:55;3.17;;;2.95;;
10365;SDS011;5229;41.820;23.490;2022-07-17T07:45:22;4.28;;;3.75;;
10365;SDS011;5229;41.820;23.490;2022-07-17T07:47:50;3.17;;;2.97;;
10365;SDS011;5229;41.820;23.490;2022-07-17T07:50:17;3.40;;;3.10;;
10365;SDS011;5229;41.820;23.490;2022-07-17T07:52:44;3.25;;;2.95;;
10365;SDS011;5229;41.820;23.490;2022-07-17T07:55:13;3.05;;;2.85;;
10365;SDS011;5229;41.820;23.490;2022-07-17T07:57:40;3.67;;;3.20;;
10365;SDS011;5229;41.820;23.490;2022-07-17T08:00:08;3.80;;;3.40;;
10365;SDS011;5229;41.820;23.490;2022-07-17T08:02:37;3.65;;;3.35;;
10365;SDS011;5229;41.820;23.490;2022-07-17T08:05:04;7.10;;;3.67;;
10365;SDS011;5229;41.820;23.490;2022-07-17T08:07:31;3.92;;;3.63;;
10365;SDS011;5229;41.820;23.490;2022-07-17T08:09:58;3.53;;;3.33;;
10365;SDS011;5229;41.820;23.490;2022-07-17T08:12:26;3.72;;;3.42;;
10365;SDS011;5229;41.820;23.490;2022-07-17T08:14:52;4.07;;;3.58;;
10365;SDS011;5229;41.820;23.490;2022-07-17T08:17:19;3.88;;;3.58;;
10365;SDS011;5229;41.820;23.490;2022-07-17T08:19:46;4.68;;;3.45;;
10365;SDS011;5229;41.820;23.490;2022-07-17T08:22:13;3.17;;;2.88;;
10365;SDS011;5229;41.820;23.490;2022-07-17T08:24:40;4.25;;;3.40;;
10365;SDS011;5229;41.820;23.490;2022-07-17T08:27:07;3.83;;;2.95;;
10365;SDS011;5229;41.820;23.490;2022-07-17T08:29:35;2.90;;;2.70;;
10365;SDS011;5229;41.820;23.490;2022-07-17T08:32:01;2.63;;;2.42;;
10365;SDS011;5229;41.820;23.490;2022-07-17T08:34:29;3.00;;;2.70;;
10365;SDS011;5229;41.820;23.490;2022-07-17T08:36:55;2.78;;;2.58;;
10365;SDS011;5229;41.820;23.490;2022-07-17T08:39:22;5.90;;;3.10;;
10365;SDS011;5229;41.820;23.490;2022-07-17T08:41:49;2.88;;;2.67;;
10365;SDS011;5229;41.820;23.490;2022-07-17T08:44:16;2.47;;;2.28;;
10365;SDS011;5229;41.820;23.490;2022-07-17T08:46:45;2.63;;;2.42;;
10365;SDS011;5229;41.820;23.490;2022-07-17T08:49:11;2.75;;;2.55;;
10365;SDS011;5229;41.820;23.490;2022-07-17T08:51:40;2.58;;;2.38;;
10365;SDS011;5229;41.820;23.490;2022-07-17T08:54:07;2.47;;;2.28;;
10365;SDS011;5229;41.820;23.490;2022-07-17T08:56:34;2.72;;;2.53;;
10365;SDS011;5229;41.820;23.490;2022-07-17T08:59:00;2.45;;;2.08;;
10365;SDS011;5229;41.820;23.490;2022-07-17T09:01:27;2.55;;;1.95;;
10365;SDS011;5229;41.820;23.490;2022-07-17T09:03:57;2.35;;;2.25;;
10365;SDS011;5229;41.820;23.490;2022-07-17T09:06:25;2.47;;;2.10;;
10365;SDS011;5229;41.820;23.490;2022-07-17T09:09:05;2.22;;;2.13;;
10365;SDS011;5229;41.820;23.490;2022-07-17T09:11:41;2.28;;;2.17;;
10365;SDS011;5229;41.820;23.490;2022-07-17T09:14:09;2.13;;;2.03;;
10365;SDS011;5229;41.820;23.490;2022-07-17T09:16:36;2.20;;;2.10;;
10365;SDS011;5229;41.820;23.490;2022-07-17T09:19:24;2.17;;;2.08;;
10365;SDS011;5229;41.820;23.490;2022-07-17T09:22:02;2.35;;;2.08;;
10365;SDS011;5229;41.820;23.490;2022-07-17T09:24:37;2.40;;;2.20;;
10365;SDS011;5229;41.820;23.490;2022-07-17T09:27:06;2.92;;;2.17;;
10365;SDS011;5229;41.820;23.490;2022-07-17T09:29:33;2.15;;;2.05;;
10365;SDS011;5229;41.820;23.490;2022-07-17T09:32:00;3.00;;;2.13;;
10365;SDS011;5229;41.820;23.490;2022-07-17T09:34:28;2.40;;;2.20;;
10365;SDS011;5229;41.820;23.490;2022-07-17T09:36:59;2.38;;;2.00;;
10365;SDS011;5229;41.820;23.490;2022-07-17T09:39:33;2.13;;;1.92;;
10365;SDS011;5229;41.820;23.490;2022-07-17T09:42:00;1.92;;;1.77;;
10365;SDS011;5229;41.820;23.490;2022-07-17T09:44:27;2.30;;;2.13;;
10365;SDS011;5229;41.820;23.490;2022-07-17T09:46:54;2.00;;;1.90;;
10365;SDS011;5229;41.820;23.490;2022-07-17T09:49:22;2.20;;;2.10;;
10365;SDS011;5229;41.820;23.490;2022-07-17T09:51:54;2.40;;;2.20;;
10365;SDS011;5229;41.820;23.490;2022-07-17T09:54:22;2.35;;;2.15;;
10365;SDS011;5229;41.820;23.490;2022-07-17T09:56:49;3.70;;;2.10;;
10365;SDS011;5229;41.820;23.490;2022-07-17T09:59:17;2.38;;;2.17;;
10365;SDS011;5229;41.820;23.490;2022-07-17T10:01:45;2.00;;;1.85;;
10365;SDS011;5229;41.820;23.490;2022-07-17T10:04:15;1.70;;;1.60;;
10365;SDS011;5229;41.820;23.490;2022-07-17T10:06:42;2.35;;;2.15;;
10365;SDS011;5229;41.820;23.490;2022-07-17T10:09:10;2.45;;;2.08;;
10365;SDS011;5229;41.820;23.490;2022-07-17T10:11:39;2.83;;;2.08;;
10365;SDS011;5229;41.820;23.490;2022-07-17T10:14:08;3.08;;;2.05;;
10365;SDS011;5229;41.820;23.490;2022-07-17T10:16:38;2.13;;;1.80;;
10365;SDS011;5229;41.820;23.490;2022-07-17T10:19:14;2.25;;;1.83;;
10365;SDS011;5229;41.820;23.490;2022-07-17T10:21:51;2.80;;;1.60;;
10365;SDS011;5229;41.820;23.490;2022-07-17T10:24:20;1.90;;;1.80;;
10365;SDS011;5229;41.820;23.490;2022-07-17T10:26:47;2.28;;;1.83;;
10365;SDS011;5229;41.820;23.490;2022-07-17T10:29:28;1.85;;;1.75;;
10365;SDS011;5229;41.820;23.490;2022-07-17T10:31:56;1.95;;;1.85;;
10365;SDS011;5229;41.820;23.490;2022-07-17T10:34:41;4.32;;;1.83;;
10365;SDS011;5229;41.820;23.490;2022-07-17T10:37:20;2.40;;;1.67;;
10365;SDS011;5229;41.820;23.490;2022-07-17T10:39:53;2.28;;;1.58;;
10365;SDS011;5229;41.820;23.490;2022-07-17T10:42:39;1.77;;;1.67;;
10365;SDS011;5229;41.820;23.490;2022-07-17T10:45:22;1.67;;;1.58;;
10365;SDS011;5229;41.820;23.490;2022-07-17T10:47:51;1.77;;;1.67;;
10365;SDS011;5229;41.820;23.490;2022-07-17T10:50:21;1.90;;;1.70;;
10365;SDS011;5229;41.820;23.490;2022-07-17T10:53:06;1.95;;;1.85;;
10365;SDS011;5229;41.820;23.490;2022-07-17T10:55:37;1.50;;;1.40;;
10365;SDS011;5229;41.820;23.490;2022-07-17T10:58:19;2.35;;;1.65;;
10365;SDS011;5229;41.820;23.490;2022-07-17T11:00:57;1.88;;;1.77;;
10365;SDS011;5229;41.820;23.490;2022-07-17T11:03:30;1.88;;;1.73;;
10365;SDS011;5229;41.820;23.490;2022-07-17T11:06:05;3.17;;;1.70;;
10365;SDS011;5229;41.820;23.490;2022-07-17T11:08:40;2.10;;;1.90;;
10365;SDS011;5229;41.820;23.490;2022-07-17T11:11:12;2.00;;;1.90;;
10365;SDS011;5229;41.820;23.490;2022-07-17T11:13:40;2.50;;;2.00;;
10365;SDS011;5229;41.820;23.490;2022-07-17T11:16:06;3.35;;;1.83;;
10365;SDS011;5229;41.820;23.490;2022-07-17T11:18:33;2.10;;;1.70;;
10365;SDS011;5229;41.820;23.490;2022-07-17T11:21:01;1.80;;;1.70;;
10365;SDS011;5229;41.820;23.490;2022-07-17T11:23:31;4.15;;;2.10;;
10365;SDS011;5229;41.820;23.490;2022-07-17T11:25:59;2.95;;;2.20;;
10365;SDS011;5229;41.820;23.490;2022-07-17T11:28:29;1.88;;;1.77;;
10365;SDS011;5229;41.820;23.490;2022-07-17T11:30:57;3.50;;;1.90;;
10365;SDS011;5229;41.820;23.490;2022-07-17T11:33:24;2.03;;;1.83;;
10365;SDS011;5229;41.820;23.490;2022-07-17T11:35:50;2.42;;;2.00;;
10365;SDS011;5229;41.820;23.490;2022-07-17T11:38:23;2.78;;;2.20;;
10365;SDS011;5229;41.820;23.490;2022-07-17T11:40:51;2.40;;;2.08;;
10365;SDS011;5229;41.820;23.490;2022-07-17T11:43:17;2.45;;;1.73;;
10365;SDS011;5229;41.820;23.490;2022-07-17T11:45:46;5.10;;;2.00;;
10365;SDS011;5229;41.820;23.490;2022-07-17T11:48:13;2.30;;;2.10;;
10365;SDS011;5229;41.820;23.490;2022-07-17T11:50:40;2.30;;;2.10;;
10365;SDS011;5229;41.820;23.490;2022-07-17T11:53:17;2.47;;;1.80;;
10365;SDS011;5229;41.820;23.490;2022-07-17T11:55:44;1.80;;;1.70;;
10365;SDS011;5229;41.820;23.490;2022-07-17T11:58:11;2.28;;;1.90;;
10365;SDS011;5229;41.820;23.490;2022-07-17T12:00:38;1.80;;;1.70;;
10365;SDS011;5229;41.820;23.490;2022-07-17T12:03:06;2.10;;;1.90;;
10365;SDS011;5229;41.820;23.490;2022-07-17T12:05:34;2.55;;;1.95;;
10365;SDS011;5229;41.820;23.490;2022-07-17T12:08:02;1.92;;;1.70;;
10365;SDS011;5229;41.820;23.490;2022-07-17T12:10:30;2.65;;;1.92;;
10365;SDS011;5229;41.820;23.490;2022-07-17T12:12:58;1.77;;;1.67;;
10365;SDS011;5229;41.820;23.490;2022-07-17T12:15:36;1.92;;;1.73;;
10365;SDS011;5229;41.820;23.490;2022-07-17T12:18:04;2.25;;;2.03;;
10365;SDS011;5229;41.820;23.490;2022-07-17T12:20:42;2.25;;;2.05;;
10365;SDS011;5229;41.820;23.490;2022-07-17T12:23:25;2.20;;;2.00;;
10365;SDS011;5229;41.820;23.490;2022-07-17T12:26:02;3.00;;;1.95;;
10365;SDS011;5229;41.820;23.490;2022-07-17T12:28:30;2.20;;;2.03;;
10365;SDS011;5229;41.820;23.490;2022-07-17T12:30:57;3.70;;;2.00;;
10365;SDS011;5229;41.820;23.490;2022-07-17T12:33:25;3.85;;;1.85;;
10365;SDS011;5229;41.820;23.490;2022-07-17T12:35:53;2.00;;;1.90;;
10365;SDS011;5229;41.820;23.490;2022-07-17T12:38:20;2.03;;;1.73;;
10365;SDS011;5229;41.820;23.490;2022-07-17T12:40:47;1.80;;;1.70;;
10365;SDS011;5229;41.820;23.490;2022-07-17T12:43:14;2.13;;;1.95;;
10365;SDS011;5229;41.820;23.490;2022-07-17T12:45:41;3.40;;;1.92;;
10365;SDS011;5229;41.820;23.490;2022-07-17T12:48:08;2.53;;;1.90;;
10365;SDS011;5229;41.820;23.490;2022-07-17T12:50:34;2.53;;;1.98;;
10365;SDS011;5229;41.820;23.490;2022-07-17T12:53:03;2.38;;;2.17;;
10365;SDS011;5229;41.820;23.490;2022-07-17T12:55:29;2.03;;;1.75;;
10365;SDS011;5229;41.820;23.490;2022-07-17T12:57:56;3.42;;;1.77;;
10365;SDS011;5229;41.820;23.490;2022-07-17T13:00:23;2.00;;;1.90;;
10365;SDS011;5229;41.820;23.490;2022-07-17T13:02:50;2.40;;;2.20;;
10365;SDS011;5229;41.820;23.490;2022-07-17T13:05:17;1.73;;;1.63;;
10365;SDS011;5229;41.820;23.490;2022-07-17T13:07:44;1.95;;;1.70;;
10365;SDS011;5229;41.820;23.490;2022-07-17T13:10:12;2.35;;;2.25;;
10365;SDS011;5229;41.820;23.490;2022-07-17T13:12:39;3.60;;;1.70;;
10365;SDS011;5229;41.820;23.490;2022-07-17T13:15:06;3.35;;;1.80;;
10365;SDS011;5229;41.820;23.490;2022-07-17T13:17:34;3.63;;;1.98;;
10365;SDS011;5229;41.820;23.490;2022-07-17T13:20:03;1.77;;;1.60;;
10365;SDS011;5229;41.820;23.490;2022-07-17T13:22:31;2.03;;;1.83;;
10365;SDS011;5229;41.820;23.490;2022-07-17T13:24:58;1.73;;;1.58;;
10365;SDS011;5229;41.820;23.490;2022-07-17T13:27:27;2.53;;;1.80;;
10365;SDS011;5229;41.820;23.490;2022-07-17T13:29:54;1.70;;;1.55;;
10365;SDS011;5229;41.820;23.490;2022-07-17T13:32:21;2.10;;;1.90;;
10365;SDS011;5229;41.820;23.490;2022-07-17T13:34:48;2.00;;;1.80;;
10365;SDS011;5229;41.820;23.490;2022-07-17T13:37:15;1.83;;;1.70;;
10365;SDS011;5229;41.820;23.490;2022-07-17T13:39:42;7.53;;;2.72;;
10365;SDS011;5229;41.820;23.490;2022-07-17T13:42:08;2.50;;;1.73;;
10365;SDS011;5229;41.820;23.490;2022-07-17T13:44:37;6.00;;;2.40;;
10365;SDS011;5229;41.820;23.490;2022-07-17T13:47:03;6.57;;;2.13;;
10365;SDS011;5229;41.820;23.490;2022-07-17T13:49:30;8.07;;;2.38;;
10365;SDS011;5229;41.820;23.490;2022-07-17T13:51:57;6.82;;;2.75;;
10365;SDS011;5229;41.820;23.490;2022-07-17T13:54:24;2.25;;;2.05;;
10365;SDS011;5229;41.820;23.490;2022-07-17T13:56:51;2.10;;;1.90;;
10365;SDS011;5229;41.820;23.490;2022-07-17T13:59:18;1.98;;;1.83;;
10365;SDS011;5229;41.820;23.490;2022-07-17T14:01:46;2.72;;;2.03;;
10365;SDS011;5229;41.820;23.490;2022-07-17T14:04:13;2.10;;;1.90;;
10365;SDS011;5229;41.820;23.490;2022-07-17T14:06:40;2.03;;;1.92;;
10365;SDS011;5229;41.820;23.490;2022-07-17T14:09:06;2.92;;;1.95;;
10365;SDS011;5229;41.820;23.490;2022-07-17T14:11:34;2.60;;;2.20;;
10365;SDS011;5229;41.820;23.490;2022-07-17T14:14:01;1.80;;;1.70;;
10365;SDS011;5229;41.820;23.490;2022-07-17T14:16:28;2.42;;;2.00;;
10365;SDS011;5229;41.820;23.490;2022-07-17T14:18:56;1.98;;;1.88;;
10365;SDS011;5229;41.820;23.490;2022-07-17T14:21:27;3.67;;;2.03;;
10365;SDS011;5229;41.820;23.490;2022-07-17T14:23:54;2.10;;;1.77;;
10365;SDS011;5229;41.820;23.490;2022-07-17T14:26:21;2.10;;;1.90;;
10365;SDS011;5229;41.820;23.490;2022-07-17T14:28:48;2.50;;;2.00;;
10365;SDS011;5229;41.820;23.490;2022-07-17T14:31:14;2.22;;;2.05;;
10365;SDS011;5229;41.820;23.490;2022-07-17T14:33:42;1.70;;;1.60;;
10365;SDS011;5229;41.820;23.490;2022-07-17T14:36:10;1.85;;;1.75;;
10365;SDS011;5229;41.820;23.490;2022-07-17T14:38:37;2.35;;;1.73;;
10365;SDS011;5229;41.820;23.490;2022-07-17T14:41:04;2.08;;;1.90;;
10365;SDS011;5229;41.820;23.490;2022-07-17T14:43:32;1.70;;;1.60;;
10365;SDS011;5229;41.820;23.490;2022-07-17T14:45:59;1.90;;;1.80;;
10365;SDS011;5229;41.820;23.490;2022-07-17T14:48:26;2.17;;;1.80;;
10365;SDS011;5229;41.820;23.490;2022-07-17T14:50:52;2.08;;;1.98;;
10365;SDS011;5229;41.820;23.490;2022-07-17T14:53:21;2.75;;;1.98;;